sensor_id;sensor_type;location;lat;lon;timestamp;temperature;humidity
71039;SHT30;58692;43.212;27.908;2023-08-01T00:02:17;23.96;79.47
71039;SHT30;58692;43.212;27.908;2023-08-01T00:04:43;23.87;79.31
71039;SHT30;58692;43.212;27.908;2023-08-01T00:07:08;23.84;79.29
71039;SHT30;58692;43.212;27.908;2023-08-01T00:09:34;23.89;79.14
71039;SHT30;58692;43.212;27.908;2023-08-01T00:11:59;23.87;78.95
71039;SHT30;58692;43.212;27.908;2023-08-01T00:14:25;23.93;78.70
71039;SHT30;58692;43.212;27.908;2023-08-01T00:16:51;23.86;78.90
71039;SHT30;58692;43.212;27.908;2023-08-01T00:19:16;23.87;78.70
71039;SHT30;58692;43.212;27.908;2023-08-01T00:21:42;23.89;78.55
71039;SHT30;58692;43.212;27.908;2023-08-01T00:24:07;23.77;78.08
71039;SHT30;58692;43.212;27.908;2023-08-01T00:26:33;23.86;77.78
71039;SHT30;58692;43.212;27.908;2023-08-01T00:28:59;23.76;77.70
71039;SHT30;58692;43.212;27.908;2023-08-01T00:31:25;23.80;77.13
71039;SHT30;58692;43.212;27.908;2023-08-01T00:33:50;23.80;76.73
71039;SHT30;58692;43.212;27.908;2023-08-01T00:36:15;23.82;76.40
71039;SHT30;58692;43.212;27.908;2023-08-01T00:38:41;23.83;76.12
71039;SHT30;58692;43.212;27.908;2023-08-01T00:41:09;23.73;76.03
71039;SHT30;58692;43.212;27.908;2023-08-01T00:43:34;23.62;76.08
71039;SHT30;58692;43.212;27.908;2023-08-01T00:46:03;23.56;76.17
71039;SHT30;58692;43.212;27.908;2023-08-01T00:48:29;23.52;76.17
71039;SHT30;58692;43.212;27.908;2023-08-01T00:50:56;23.52;76.84
71039;SHT30;58692;43.212;27.908;2023-08-01T00:53:23;23.50;77.11
71039;SHT30;58692;43.212;27.908;2023-08-01T00:55:51;23.50;77.21
71039;SHT30;58692;43.212;27.908;2023-08-01T00:58:19;23.52;77.16
71039;SHT30;58692;43.212;27.908;2023-08-01T01:00:45;23.22;77.67
71039;SHT30;58692;43.212;27.908;2023-08-01T01:03:11;23.26;78.01
71039;SHT30;58692;43.212;27.908;2023-08-01T01:05:39;23.16;78.55
71039;SHT30;58692;43.212;27.908;2023-08-01T01:08:06;23.23;78.27
71039;SHT30;58692;43.212;27.908;2023-08-01T01:10:31;23.25;78.20
71039;SHT30;58692;43.212;27.908;2023-08-01T01:12:57;23.21;78.09
71039;SHT30;58692;43.212;27.908;2023-08-01T01:15:22;23.18;77.98
71039;SHT30;58692;43.212;27.908;2023-08-01T01:17:48;23.12;77.67
71039;SHT30;58692;43.212;27.908;2023-08-01T01:20:13;23.15;77.52
71039;SHT30;58692;43.212;27.908;2023-08-01T01:22:40;23.25;77.15
71039;SHT30;58692;43.212;27.908;2023-08-01T01:25:07;23.22;77.16
71039;SHT30;58692;43.212;27.908;2023-08-01T01:27:35;23.05;77.54
71039;SHT30;58692;43.212;27.908;2023-08-01T01:30:02;22.91;78.16
71039;SHT30;58692;43.212;27.908;2023-08-01T01:32:29;22.99;78.01
71039;SHT30;58692;43.212;27.908;2023-08-01T01:34:55;22.91;78.25
71039;SHT30;58692;43.212;27.908;2023-08-01T01:37:21;22.71;78.82
71039;SHT30;58692;43.212;27.908;2023-08-01T01:39:47;22.77;78.80
71039;SHT30;58692;43.212;27.908;2023-08-01T01:42:12;22.75;78.81
71039;SHT30;58692;43.212;27.908;2023-08-01T01:44:38;22.67;78.98
71039;SHT30;58692;43.212;27.908;2023-08-01T01:47:04;22.63;79.31
71039;SHT30;58692;43.212;27.908;2023-08-01T01:49:30;22.64;79.37
71039;SHT30;58692;43.212;27.908;2023-08-01T01:51:55;22.60;79.46
71039;SHT30;58692;43.212;27.908;2023-08-01T01:54:21;22.47;80.00
71039;SHT30;58692;43.212;27.908;2023-08-01T01:56:46;22.58;79.73
71039;SHT30;58692;43.212;27.908;2023-08-01T01:59:12;22.67;79.31
71039;SHT30;58692;43.212;27.908;2023-08-01T02:01:37;22.72;79.16
71039;SHT30;58692;43.212;27.908;2023-08-01T02:04:03;22.71;79.28
71039;SHT30;58692;43.212;27.908;2023-08-01T02:06:28;22.40;80.06
71039;SHT30;58692;43.212;27.908;2023-08-01T02:08:54;22.13;80.86
71039;SHT30;58692;43.212;27.908;2023-08-01T02:11:19;22.20;80.75
71039;SHT30;58692;43.212;27.908;2023-08-01T02:13:45;22.36;80.13
71039;SHT30;58692;43.212;27.908;2023-08-01T02:16:10;22.44;79.93
71039;SHT30;58692;43.212;27.908;2023-08-01T02:18:36;22.60;79.30
71039;SHT30;58692;43.212;27.908;2023-08-01T02:21:02;22.61;79.03
71039;SHT30;58692;43.212;27.908;2023-08-01T02:23:27;22.64;78.79
71039;SHT30;58692;43.212;27.908;2023-08-01T02:25:54;22.68;78.63
71039;SHT30;58692;43.212;27.908;2023-08-01T02:28:19;22.51;78.91
71039;SHT30;58692;43.212;27.908;2023-08-01T02:30:45;22.58;78.59
71039;SHT30;58692;43.212;27.908;2023-08-01T02:33:11;22.61;78.55
71039;SHT30;58692;43.212;27.908;2023-08-01T02:35:37;22.60;78.48
71039;SHT30;58692;43.212;27.908;2023-08-01T02:38:04;22.61;78.35
71039;SHT30;58692;43.212;27.908;2023-08-01T02:40:30;22.57;78.34
71039;SHT30;58692;43.212;27.908;2023-08-01T02:42:55;22.57;78.24
71039;SHT30;58692;43.212;27.908;2023-08-01T02:45:21;22.51;78.22
71039;SHT30;58692;43.212;27.908;2023-08-01T02:47:46;22.53;78.17
71039;SHT30;58692;43.212;27.908;2023-08-01T02:50:12;22.44;78.38
71039;SHT30;58692;43.212;27.908;2023-08-01T02:52:37;22.50;78.17
71039;SHT30;58692;43.212;27.908;2023-08-01T02:55:03;22.43;78.18
71039;SHT30;58692;43.212;27.908;2023-08-01T02:57:28;22.24;78.84
71039;SHT30;58692;43.212;27.908;2023-08-01T02:59:54;22.27;78.82
71039;SHT30;58692;43.212;27.908;2023-08-01T03:02:19;22.26;78.98
71039;SHT30;58692;43.212;27.908;2023-08-01T03:04:45;22.32;78.81
71039;SHT30;58692;43.212;27.908;2023-08-01T03:07:10;22.35;78.87
71039;SHT30;58692;43.212;27.908;2023-08-01T03:09:35;22.43;79.22
71039;SHT30;58692;43.212;27.908;2023-08-01T03:12:01;22.40;79.25
71039;SHT30;58692;43.212;27.908;2023-08-01T03:14:26;22.41;79.55
71039;SHT30;58692;43.212;27.908;2023-08-01T03:16:52;22.40;79.28
71039;SHT30;58692;43.212;27.908;2023-08-01T03:19:17;22.32;80.03
71039;SHT30;58692;43.212;27.908;2023-08-01T03:21:43;22.37;80.19
71039;SHT30;58692;43.212;27.908;2023-08-01T03:24:12;22.36;80.28
71039;SHT30;58692;43.212;27.908;2023-08-01T03:26:37;22.32;80.49
71039;SHT30;58692;43.212;27.908;2023-08-01T03:29:03;22.33;80.33
71039;SHT30;58692;43.212;27.908;2023-08-01T03:31:30;22.36;80.01
71039;SHT30;58692;43.212;27.908;2023-08-01T03:33:56;22.27;80.58
71039;SHT30;58692;43.212;27.908;2023-08-01T03:36:24;22.21;80.60
71039;SHT30;58692;43.212;27.908;2023-08-01T03:38:49;22.16;81.01
71039;SHT30;58692;43.212;27.908;2023-08-01T03:41:15;22.06;81.38
71039;SHT30;58692;43.212;27.908;2023-08-01T03:43:40;22.10;81.43
71039;SHT30;58692;43.212;27.908;2023-08-01T03:46:07;22.02;81.90
71039;SHT30;58692;43.212;27.908;2023-08-01T03:48:32;22.13;81.73
71039;SHT30;58692;43.212;27.908;2023-08-01T03:50:58;22.18;81.72
71039;SHT30;58692;43.212;27.908;2023-08-01T03:53:23;22.32;81.20
71039;SHT30;58692;43.212;27.908;2023-08-01T03:55:49;22.12;81.10
71039;SHT30;58692;43.212;27.908;2023-08-01T03:58:14;22.27;80.36
71039;SHT30;58692;43.212;27.908;2023-08-01T04:00:40;22.26;80.41
71039;SHT30;58692;43.212;27.908;2023-08-01T04:03:06;22.27;80.18
71039;SHT30;58692;43.212;27.908;2023-08-01T04:05:31;22.72;78.78
71039;SHT30;58692;43.212;27.908;2023-08-01T04:07:57;23.12;77.62
71039;SHT30;58692;43.212;27.908;2023-08-01T04:10:23;23.49;76.48
71039;SHT30;58692;43.212;27.908;2023-08-01T04:12:48;23.77;75.46
71039;SHT30;58692;43.212;27.908;2023-08-01T04:15:14;24.06;74.65
71039;SHT30;58692;43.212;27.908;2023-08-01T04:17:39;24.30;73.74
71039;SHT30;58692;43.212;27.908;2023-08-01T04:20:05;24.33;73.34
71039;SHT30;58692;43.212;27.908;2023-08-01T04:22:31;24.71;72.47
71039;SHT30;58692;43.212;27.908;2023-08-01T04:24:57;24.85;71.98
71039;SHT30;58692;43.212;27.908;2023-08-01T04:27:22;25.11;71.24
71039;SHT30;58692;43.212;27.908;2023-08-01T04:29:48;25.30;70.80
71039;SHT30;58692;43.212;27.908;2023-08-01T04:32:13;25.39;70.50
71039;SHT30;58692;43.212;27.908;2023-08-01T04:34:41;25.53;70.17
71039;SHT30;58692;43.212;27.908;2023-08-01T04:37:06;25.40;70.70
71039;SHT30;58692;43.212;27.908;2023-08-01T04:39:32;25.91;69.62
71039;SHT30;58692;43.212;27.908;2023-08-01T04:41:57;25.46;70.52
71039;SHT30;58692;43.212;27.908;2023-08-01T04:44:23;25.12;71.54
71039;SHT30;58692;43.212;27.908;2023-08-01T04:46:48;25.54;70.44
71039;SHT30;58692;43.212;27.908;2023-08-01T04:49:14;25.88;69.33
71039;SHT30;58692;43.212;27.908;2023-08-01T04:51:40;26.47;67.95
71039;SHT30;58692;43.212;27.908;2023-08-01T04:54:05;26.82;66.93
71039;SHT30;58692;43.212;27.908;2023-08-01T04:56:31;26.88;66.37
71039;SHT30;58692;43.212;27.908;2023-08-01T04:58:56;27.55;64.37
71039;SHT30;58692;43.212;27.908;2023-08-01T05:01:21;27.71;64.01
71039;SHT30;58692;43.212;27.908;2023-08-01T05:03:47;28.15;62.99
71039;SHT30;58692;43.212;27.908;2023-08-01T05:06:13;28.60;62.20
71039;SHT30;58692;43.212;27.908;2023-08-01T05:08:38;28.82;61.98
71039;SHT30;58692;43.212;27.908;2023-08-01T05:11:04;28.92;61.85
71039;SHT30;58692;43.212;27.908;2023-08-01T05:13:29;28.78;61.58
71039;SHT30;58692;43.212;27.908;2023-08-01T05:15:55;28.34;61.94
71039;SHT30;58692;43.212;27.908;2023-08-01T05:18:20;28.72;61.63
71039;SHT30;58692;43.212;27.908;2023-08-01T05:20:46;28.44;61.63
71039;SHT30;58692;43.212;27.908;2023-08-01T05:23:11;28.18;62.11
71039;SHT30;58692;43.212;27.908;2023-08-01T05:25:37;28.22;63.77
71039;SHT30;58692;43.212;27.908;2023-08-01T05:28:02;28.09;64.42
71039;SHT30;58692;43.212;27.908;2023-08-01T05:30:28;28.26;63.85
71039;SHT30;58692;43.212;27.908;2023-08-01T05:32:53;27.54;65.62
71039;SHT30;58692;43.212;27.908;2023-08-01T05:35:19;27.26;66.46
71039;SHT30;58692;43.212;27.908;2023-08-01T05:37:46;28.02;64.76
71039;SHT30;58692;43.212;27.908;2023-08-01T05:40:12;28.35;63.50
71039;SHT30;58692;43.212;27.908;2023-08-01T05:42:37;28.26;63.87
71039;SHT30;58692;43.212;27.908;2023-08-01T05:45:03;29.02;62.15
71039;SHT30;58692;43.212;27.908;2023-08-01T05:47:30;28.83;62.55
71039;SHT30;58692;43.212;27.908;2023-08-01T05:49:55;29.34;61.25
71039;SHT30;58692;43.212;27.908;2023-08-01T05:52:22;29.85;59.98
71039;SHT30;58692;43.212;27.908;2023-08-01T05:54:47;30.18;58.87
71039;SHT30;58692;43.212;27.908;2023-08-01T05:57:13;29.57;60.13
71039;SHT30;58692;43.212;27.908;2023-08-01T05:59:38;29.34;60.75
71039;SHT30;58692;43.212;27.908;2023-08-01T06:02:04;29.04;61.18
71039;SHT30;58692;43.212;27.908;2023-08-01T06:04:29;29.72;59.98
71039;SHT30;58692;43.212;27.908;2023-08-01T06:06:55;29.89;58.84
71039;SHT30;58692;43.212;27.908;2023-08-01T06:09:21;29.47;60.00
71039;SHT30;58692;43.212;27.908;2023-08-01T06:11:46;29.60;59.43
71039;SHT30;58692;43.212;27.908;2023-08-01T06:14:12;29.26;60.44
71039;SHT30;58692;43.212;27.908;2023-08-01T06:16:37;29.57;59.81
71039;SHT30;58692;43.212;27.908;2023-08-01T06:19:03;29.55;59.14
71039;SHT30;58692;43.212;27.908;2023-08-01T06:21:29;29.46;59.73
71039;SHT30;58692;43.212;27.908;2023-08-01T06:23:55;30.40;57.69
71039;SHT30;58692;43.212;27.908;2023-08-01T06:26:20;30.42;57.24
71039;SHT30;58692;43.212;27.908;2023-08-01T06:28:45;31.30;55.31
71039;SHT30;58692;43.212;27.908;2023-08-01T06:31:11;30.83;56.16
71039;SHT30;58692;43.212;27.908;2023-08-01T06:33:36;30.47;56.92
71039;SHT30;58692;43.212;27.908;2023-08-01T06:36:02;30.00;57.98
71039;SHT30;58692;43.212;27.908;2023-08-01T06:38:28;31.00;55.40
71039;SHT30;58692;43.212;27.908;2023-08-01T06:40:53;30.33;56.80
71039;SHT30;58692;43.212;27.908;2023-08-01T06:43:18;30.67;55.99
71039;SHT30;58692;43.212;27.908;2023-08-01T06:45:44;30.70;56.27
71039;SHT30;58692;43.212;27.908;2023-08-01T06:48:09;30.59;55.67
71039;SHT30;58692;43.212;27.908;2023-08-01T06:50:35;30.69;55.54
71039;SHT30;58692;43.212;27.908;2023-08-01T06:53:00;30.72;56.08
71039;SHT30;58692;43.212;27.908;2023-08-01T06:55:26;30.64;55.66
71039;SHT30;58692;43.212;27.908;2023-08-01T06:57:52;30.55;56.27
71039;SHT30;58692;43.212;27.908;2023-08-01T07:00:17;30.91;54.93
71039;SHT30;58692;43.212;27.908;2023-08-01T07:02:43;31.01;54.22
71039;SHT30;58692;43.212;27.908;2023-08-01T07:05:08;32.04;53.04
71039;SHT30;58692;43.212;27.908;2023-08-01T07:07:34;31.92;52.74
71039;SHT30;58692;43.212;27.908;2023-08-01T07:09:59;32.61;51.81
71039;SHT30;58692;43.212;27.908;2023-08-01T07:12:25;32.59;51.63
71039;SHT30;58692;43.212;27.908;2023-08-01T07:14:51;32.63;51.14
71039;SHT30;58692;43.212;27.908;2023-08-01T07:17:17;31.55;52.65
71039;SHT30;58692;43.212;27.908;2023-08-01T07:19:42;31.81;52.98
71039;SHT30;58692;43.212;27.908;2023-08-01T07:22:08;31.03;53.82
71039;SHT30;58692;43.212;27.908;2023-08-01T07:24:34;31.11;53.77
71039;SHT30;58692;43.212;27.908;2023-08-01T07:26:59;30.73;54.94
71039;SHT30;58692;43.212;27.908;2023-08-01T07:29:27;31.04;53.52
71039;SHT30;58692;43.212;27.908;2023-08-01T07:31:53;31.31;53.45
71039;SHT30;58692;43.212;27.908;2023-08-01T07:34:19;31.38;53.06
71039;SHT30;58692;43.212;27.908;2023-08-01T07:36:47;32.44;51.25
71039;SHT30;58692;43.212;27.908;2023-08-01T07:39:14;32.28;50.92
71039;SHT30;58692;43.212;27.908;2023-08-01T07:41:39;33.15;49.00
71039;SHT30;58692;43.212;27.908;2023-08-01T07:44:05;32.02;51.46
71039;SHT30;58692;43.212;27.908;2023-08-01T07:46:31;31.79;51.65
71039;SHT30;58692;43.212;27.908;2023-08-01T07:48:57;31.98;51.45
71039;SHT30;58692;43.212;27.908;2023-08-01T07:51:22;31.45;53.07
71039;SHT30;58692;43.212;27.908;2023-08-01T07:53:48;32.61;50.67
71039;SHT30;58692;43.212;27.908;2023-08-01T07:56:13;32.01;50.17
71039;SHT30;58692;43.212;27.908;2023-08-01T07:58:39;32.76;48.34
71039;SHT30;58692;43.212;27.908;2023-08-01T08:01:05;32.40;52.59
71039;SHT30;58692;43.212;27.908;2023-08-01T08:03:31;31.38;55.30
71039;SHT30;58692;43.212;27.908;2023-08-01T08:05:57;30.96;57.03
71039;SHT30;58692;43.212;27.908;2023-08-01T08:08:23;29.71;59.31
71039;SHT30;58692;43.212;27.908;2023-08-01T08:10:49;29.37;60.44
71039;SHT30;58692;43.212;27.908;2023-08-01T08:13:14;29.47;60.76
71039;SHT30;58692;43.212;27.908;2023-08-01T08:15:40;29.11;62.04
71039;SHT30;58692;43.212;27.908;2023-08-01T08:18:05;28.89;62.98
71039;SHT30;58692;43.212;27.908;2023-08-01T08:20:40;29.29;61.62
71039;SHT30;58692;43.212;27.908;2023-08-01T08:23:06;29.50;61.05
71039;SHT30;58692;43.212;27.908;2023-08-01T08:25:32;29.55;61.46
71039;SHT30;58692;43.212;27.908;2023-08-01T08:27:57;29.65;61.18
71039;SHT30;58692;43.212;27.908;2023-08-01T08:30:23;29.09;62.27
71039;SHT30;58692;43.212;27.908;2023-08-01T08:32:48;28.97;63.02
71039;SHT30;58692;43.212;27.908;2023-08-01T08:35:14;29.13;62.41
71039;SHT30;58692;43.212;27.908;2023-08-01T08:37:39;28.51;63.94
71039;SHT30;58692;43.212;27.908;2023-08-01T08:40:05;28.89;63.05
71039;SHT30;58692;43.212;27.908;2023-08-01T08:42:33;29.37;62.01
71039;SHT30;58692;43.212;27.908;2023-08-01T08:45:01;29.71;61.20
71039;SHT30;58692;43.212;27.908;2023-08-01T08:47:27;29.38;61.52
71039;SHT30;58692;43.212;27.908;2023-08-01T08:49:55;29.16;61.91
71039;SHT30;58692;43.212;27.908;2023-08-01T08:52:23;29.58;61.36
71039;SHT30;58692;43.212;27.908;2023-08-01T08:54:49;29.97;60.59
71039;SHT30;58692;43.212;27.908;2023-08-01T08:57:15;30.56;59.09
71039;SHT30;58692;43.212;27.908;2023-08-01T08:59:42;29.54;60.98
71039;SHT30;58692;43.212;27.908;2023-08-01T09:02:09;29.51;61.49
71039;SHT30;58692;43.212;27.908;2023-08-01T09:04:34;29.53;61.36
71039;SHT30;58692;43.212;27.908;2023-08-01T09:07:02;29.72;60.27
71039;SHT30;58692;43.212;27.908;2023-08-01T09:09:32;29.29;61.59
71039;SHT30;58692;43.212;27.908;2023-08-01T09:11:58;29.70;61.34
71039;SHT30;58692;43.212;27.908;2023-08-01T09:14:24;30.43;60.37
71039;SHT30;58692;43.212;27.908;2023-08-01T09:16:49;30.22;61.09
71039;SHT30;58692;43.212;27.908;2023-08-01T09:19:18;30.19;61.19
71039;SHT30;58692;43.212;27.908;2023-08-01T09:21:45;29.98;61.63
71039;SHT30;58692;43.212;27.908;2023-08-01T09:24:13;29.62;62.65
71039;SHT30;58692;43.212;27.908;2023-08-01T09:26:39;29.49;63.50
71039;SHT30;58692;43.212;27.908;2023-08-01T09:29:05;30.63;61.25
71039;SHT30;58692;43.212;27.908;2023-08-01T09:31:33;31.75;57.87
71039;SHT30;58692;43.212;27.908;2023-08-01T09:34:00;30.74;59.75
71039;SHT30;58692;43.212;27.908;2023-08-01T09:36:25;30.51;59.19
71039;SHT30;58692;43.212;27.908;2023-08-01T09:38:51;29.81;60.43
71039;SHT30;58692;43.212;27.908;2023-08-01T09:41:18;29.50;61.30
71039;SHT30;58692;43.212;27.908;2023-08-01T09:43:45;29.53;60.99
71039;SHT30;58692;43.212;27.908;2023-08-01T09:46:11;29.55;60.74
71039;SHT30;58692;43.212;27.908;2023-08-01T09:48:37;29.80;60.79
71039;SHT30;58692;43.212;27.908;2023-08-01T09:51:11;30.46;58.70
71039;SHT30;58692;43.212;27.908;2023-08-01T09:56:15;30.79;57.94
71039;SHT30;58692;43.212;27.908;2023-08-01T09:58:43;30.83;57.07
71039;SHT30;58692;43.212;27.908;2023-08-01T10:01:10;29.67;59.44
71039;SHT30;58692;43.212;27.908;2023-08-01T10:03:36;30.08;58.74
71039;SHT30;58692;43.212;27.908;2023-08-01T10:06:01;30.21;59.10
71039;SHT30;58692;43.212;27.908;2023-08-01T10:08:29;30.00;59.54
71039;SHT30;58692;43.212;27.908;2023-08-01T10:10:54;30.57;58.02
71039;SHT30;58692;43.212;27.908;2023-08-01T10:13:23;30.70;57.26
71039;SHT30;58692;43.212;27.908;2023-08-01T10:15:50;30.56;58.03
71039;SHT30;58692;43.212;27.908;2023-08-01T10:18:16;30.67;57.78
71039;SHT30;58692;43.212;27.908;2023-08-01T10:20:43;30.83;57.85
71039;SHT30;58692;43.212;27.908;2023-08-01T10:23:09;30.43;58.20
71039;SHT30;58692;43.212;27.908;2023-08-01T10:25:37;29.95;60.07
71039;SHT30;58692;43.212;27.908;2023-08-01T10:28:04;30.28;59.34
71039;SHT30;58692;43.212;27.908;2023-08-01T10:30:30;31.07;57.54
71039;SHT30;58692;43.212;27.908;2023-08-01T10:32:57;30.35;57.25
71039;SHT30;58692;43.212;27.908;2023-08-01T10:35:38;29.93;57.81
71039;SHT30;58692;43.212;27.908;2023-08-01T10:38:06;30.16;57.27
71039;SHT30;58692;43.212;27.908;2023-08-01T10:40:34;30.66;55.72
71039;SHT30;58692;43.212;27.908;2023-08-01T10:42:59;30.96;55.31
71039;SHT30;58692;43.212;27.908;2023-08-01T10:45:25;30.91;55.06
71039;SHT30;58692;43.212;27.908;2023-08-01T10:47:52;31.10;53.86
71039;SHT30;58692;43.212;27.908;2023-08-01T10:50:18;30.46;54.92
71039;SHT30;58692;43.212;27.908;2023-08-01T10:52:46;30.52;55.01
71039;SHT30;58692;43.212;27.908;2023-08-01T10:55:12;30.22;56.46
71039;SHT30;58692;43.212;27.908;2023-08-01T10:57:40;30.74;56.57
71039;SHT30;58692;43.212;27.908;2023-08-01T11:00:16;29.98;58.19
71039;SHT30;58692;43.212;27.908;2023-08-01T11:02:48;29.71;58.59
71039;SHT30;58692;43.212;27.908;2023-08-01T11:05:14;30.29;58.36
71039;SHT30;58692;43.212;27.908;2023-08-01T11:07:40;30.69;57.93
71039;SHT30;58692;43.212;27.908;2023-08-01T11:10:08;30.56;57.63
71039;SHT30;58692;43.212;27.908;2023-08-01T11:12:35;31.16;56.59
71039;SHT30;58692;43.212;27.908;2023-08-01T11:15:01;30.57;57.27
71039;SHT30;58692;43.212;27.908;2023-08-01T11:17:27;31.55;55.50
71039;SHT30;58692;43.212;27.908;2023-08-01T11:20:00;30.66;57.58
71039;SHT30;58692;43.212;27.908;2023-08-01T11:22:26;29.82;58.43
71039;SHT30;58692;43.212;27.908;2023-08-01T11:24:51;30.45;60.04
71039;SHT30;58692;43.212;27.908;2023-08-01T11:27:18;31.52;57.92
71039;SHT30;58692;43.212;27.908;2023-08-01T11:29:43;30.94;58.56
71039;SHT30;58692;43.212;27.908;2023-08-01T11:32:09;30.28;60.13
71039;SHT30;58692;43.212;27.908;2023-08-01T11:34:42;30.46;59.38
71039;SHT30;58692;43.212;27.908;2023-08-01T11:37:10;30.28;59.51
71039;SHT30;58692;43.212;27.908;2023-08-01T11:39:36;30.11;59.46
71039;SHT30;58692;43.212;27.908;2023-08-01T11:42:02;28.90;61.78
71039;SHT30;58692;43.212;27.908;2023-08-01T11:44:28;29.43;61.85
71039;SHT30;58692;43.212;27.908;2023-08-01T11:46:55;29.34;62.60
71039;SHT30;58692;43.212;27.908;2023-08-01T11:49:21;29.50;62.59
71039;SHT30;58692;43.212;27.908;2023-08-01T11:51:46;29.78;61.30
71039;SHT30;58692;43.212;27.908;2023-08-01T11:54:13;29.43;62.57
71039;SHT30;58692;43.212;27.908;2023-08-01T11:56:40;29.55;62.00
71039;SHT30;58692;43.212;27.908;2023-08-01T11:59:10;29.55;61.82
71039;SHT30;58692;43.212;27.908;2023-08-01T12:01:39;29.27;62.33
71039;SHT30;58692;43.212;27.908;2023-08-01T12:04:05;29.02;62.65
71039;SHT30;58692;43.212;27.908;2023-08-01T12:06:32;29.33;62.22
71039;SHT30;58692;43.212;27.908;2023-08-01T12:09:09;29.40;60.76
71039;SHT30;58692;43.212;27.908;2023-08-01T12:11:35;29.41;61.05
71039;SHT30;58692;43.212;27.908;2023-08-01T12:14:07;29.55;61.30
71039;SHT30;58692;43.212;27.908;2023-08-01T12:16:36;29.67;60.44
71039;SHT30;58692;43.212;27.908;2023-08-01T12:19:02;29.21;61.43
71039;SHT30;58692;43.212;27.908;2023-08-01T12:21:29;28.97;60.98
71039;SHT30;58692;43.212;27.908;2023-08-01T12:23:55;28.46;61.87
71039;SHT30;58692;43.212;27.908;2023-08-01T12:26:20;27.90;63.35
71039;SHT30;58692;43.212;27.908;2023-08-01T12:28:46;27.78;63.99
71039;SHT30;58692;43.212;27.908;2023-08-01T12:31:16;27.63;63.86
71039;SHT30;58692;43.212;27.908;2023-08-01T12:33:42;27.40;64.25
71039;SHT30;58692;43.212;27.908;2023-08-01T12:36:08;27.13;64.24
71039;SHT30;58692;43.212;27.908;2023-08-01T12:38:33;27.46;62.94
71039;SHT30;58692;43.212;27.908;2023-08-01T12:40:59;27.65;62.24
71039;SHT30;58692;43.212;27.908;2023-08-01T12:43:24;27.70;62.44
71039;SHT30;58692;43.212;27.908;2023-08-01T12:45:49;27.84;63.08
71039;SHT30;58692;43.212;27.908;2023-08-01T12:48:15;27.50;63.90
71039;SHT30;58692;43.212;27.908;2023-08-01T12:50:44;27.61;63.57
71039;SHT30;58692;43.212;27.908;2023-08-01T12:53:11;27.36;64.91
71039;SHT30;58692;43.212;27.908;2023-08-01T12:55:37;27.03;66.82
71039;SHT30;58692;43.212;27.908;2023-08-01T12:58:02;27.20;66.82
71039;SHT30;58692;43.212;27.908;2023-08-01T13:00:29;27.43;66.50
71039;SHT30;58692;43.212;27.908;2023-08-01T13:02:55;27.54;66.02
71039;SHT30;58692;43.212;27.908;2023-08-01T13:05:21;27.37;66.34
71039;SHT30;58692;43.212;27.908;2023-08-01T13:07:47;27.27;66.66
71039;SHT30;58692;43.212;27.908;2023-08-01T13:10:12;27.14;67.34
71039;SHT30;58692;43.212;27.908;2023-08-01T13:12:38;27.12;67.75
71039;SHT30;58692;43.212;27.908;2023-08-01T13:15:04;27.07;67.49
71039;SHT30;58692;43.212;27.908;2023-08-01T13:17:30;26.98;66.59
71039;SHT30;58692;43.212;27.908;2023-08-01T13:19:55;26.89;68.13
71039;SHT30;58692;43.212;27.908;2023-08-01T13:22:21;27.00;68.18
71039;SHT30;58692;43.212;27.908;2023-08-01T13:24:46;27.13;66.99
71039;SHT30;58692;43.212;27.908;2023-08-01T13:27:13;27.26;66.08
71039;SHT30;58692;43.212;27.908;2023-08-01T13:29:38;26.82;66.50
71039;SHT30;58692;43.212;27.908;2023-08-01T13:32:06;27.04;66.50
71039;SHT30;58692;43.212;27.908;2023-08-01T13:34:32;26.89;66.51
71039;SHT30;58692;43.212;27.908;2023-08-01T13:36:58;26.95;66.15
71039;SHT30;58692;43.212;27.908;2023-08-01T13:39:24;27.03;66.22
71039;SHT30;58692;43.212;27.908;2023-08-01T13:41:49;27.24;65.40
71039;SHT30;58692;43.212;27.908;2023-08-01T13:44:15;26.86;69.37
71039;SHT30;58692;43.212;27.908;2023-08-01T13:46:40;26.73;70.75
71039;SHT30;58692;43.212;27.908;2023-08-01T13:49:06;26.95;70.54
71039;SHT30;58692;43.212;27.908;2023-08-01T13:51:33;26.75;70.03
71039;SHT30;58692;43.212;27.908;2023-08-01T13:53:59;26.71;69.52
71039;SHT30;58692;43.212;27.908;2023-08-01T13:56:25;26.61;71.06
71039;SHT30;58692;43.212;27.908;2023-08-01T13:58:51;26.69;71.28
71039;SHT30;58692;43.212;27.908;2023-08-01T14:01:17;26.71;71.81
71039;SHT30;58692;43.212;27.908;2023-08-01T14:03:44;26.99;71.17
71039;SHT30;58692;43.212;27.908;2023-08-01T14:06:11;27.19;70.56
71039;SHT30;58692;43.212;27.908;2023-08-01T14:08:38;26.95;70.85
71039;SHT30;58692;43.212;27.908;2023-08-01T14:11:05;27.16;70.95
71039;SHT30;58692;43.212;27.908;2023-08-01T14:13:31;27.14;70.72
71039;SHT30;58692;43.212;27.908;2023-08-01T14:15:56;27.00;71.33
71039;SHT30;58692;43.212;27.908;2023-08-01T14:18:22;27.23;70.46
71039;SHT30;58692;43.212;27.908;2023-08-01T14:20:47;27.43;69.97
71039;SHT30;58692;43.212;27.908;2023-08-01T14:23:13;27.03;71.14
71039;SHT30;58692;43.212;27.908;2023-08-01T14:25:38;26.98;72.07
71039;SHT30;58692;43.212;27.908;2023-08-01T14:28:04;26.51;72.32
71039;SHT30;58692;43.212;27.908;2023-08-01T14:30:30;26.30;73.09
71039;SHT30;58692;43.212;27.908;2023-08-01T14:33:00;26.51;72.32
71039;SHT30;58692;43.212;27.908;2023-08-01T14:35:26;26.34;71.99
71039;SHT30;58692;43.212;27.908;2023-08-01T14:37:52;26.40;72.54
71039;SHT30;58692;43.212;27.908;2023-08-01T14:40:17;26.30;72.09
71039;SHT30;58692;43.212;27.908;2023-08-01T14:42:43;26.41;73.01
71039;SHT30;58692;43.212;27.908;2023-08-01T14:45:09;26.55;72.91
71039;SHT30;58692;43.212;27.908;2023-08-01T14:47:34;26.47;73.35
71039;SHT30;58692;43.212;27.908;2023-08-01T14:50:03;26.52;73.37
71039;SHT30;58692;43.212;27.908;2023-08-01T14:52:28;26.49;73.64
71039;SHT30;58692;43.212;27.908;2023-08-01T14:54:54;26.63;73.36
71039;SHT30;58692;43.212;27.908;2023-08-01T14:57:19;26.95;72.44
71039;SHT30;58692;43.212;27.908;2023-08-01T14:59:45;26.86;72.70
71039;SHT30;58692;43.212;27.908;2023-08-01T15:02:10;26.88;72.31
71039;SHT30;58692;43.212;27.908;2023-08-01T15:04:36;26.65;73.14
71039;SHT30;58692;43.212;27.908;2023-08-01T15:07:01;26.59;73.33
71039;SHT30;58692;43.212;27.908;2023-08-01T15:09:29;26.68;73.39
71039;SHT30;58692;43.212;27.908;2023-08-01T15:11:55;26.53;73.50